Time;durP1;ratioP1;P1;durP2;ratioP2;P2;SDS_P1;SDS_P2;PMS_P1;PMS_P2;Temp;Humidity;BMP_temperature;BMP_pressure;BME280_temperature;BME280_humidity;BME280_pressure;Samples;Min_cycle;Max_cycle;Signal;HPM_P1;HPM_P2
2020/05/21 00:01:39;;;;;;;9.150002;8.25;;;;;;;9.86;73.375;95633.14;;;;
2020/05/21 00:03:02;;;;;;;9.150002;8.25;;;;;;;9.86;73.375;95633.14;;;;
2020/05/21 00:04:26;;;;;;;9.150002;8.25;;;;;;;9.86;73.375;95633.14;;;;
2020/05/21 00:05:33;;;;;;;9.150002;8.25;;;;;;;9.86;73.375;95633.14;;;;
2020/05/21 00:06:52;;;;;;;9.150002;8.25;;;;;;;9.86;73.375;95633.14;;;;
2020/05/21 00:08:01;;;;;;;12;9;;;;;;;9.86;73.85547;95630.44;;;;
2020/05/21 00:09:07;;;;;;;12;9;;;;;;;9.86;73.85547;95630.44;;;;
2020/05/21 00:10:29;;;;;;;12;9;;;;;;;9.86;73.85547;95630.44;;;;
2020/05/21 00:12:07;;;;;;;12;9;;;;;;;9.86;73.85547;95630.44;;;;
2020/05/21 00:13:47;;;;;;;12;9;;;;;;;9.86;73.85547;95630.44;;;;
2020/05/21 00:14:52;;;;;;;12;9;;;;;;;9.86;73.85547;95630.44;;;;
2020/05/21 00:26:20;;;;;;;9.850001;8.95;;;;;;;10.02;74.06445;95631.2;;;;
2020/05/21 00:27:22;;;;;;;9.850001;8.95;;;;;;;10.02;74.06445;95631.2;;;;
2020/05/21 00:28:22;;;;;;;9.850001;8.95;;;;;;;10.02;74.06445;95631.2;;;;
2020/05/21 00:29:23;;;;;;;8.75;7.799999;;;;;;;10.4;74.10547;95622.5;;;;
2020/05/21 00:30:23;;;;;;;8.75;7.799999;;;;;;;10.4;74.10547;95622.5;;;;
2020/05/21 00:31:24;;;;;;;8.75;7.799999;;;;;;;10.4;74.10547;95622.5;;;;
2020/05/21 00:32:25;;;;;;;8.75;7.799999;;;;;;;10.4;74.10547;95622.5;;;;
2020/05/21 00:33:25;;;;;;;8.75;7.799999;;;;;;;10.4;74.10547;95622.5;;;;
2020/05/21 00:34:26;;;;;;;8.75;7.799999;;;;;;;10.4;74.10547;95622.5;;;;
2020/05/21 00:35:26;;;;;;;8.75;7.799999;;;;;;;10.4;74.10547;95622.5;;;;
2020/05/21 00:36:27;;;;;;;8.75;7.799999;;;;;;;10.4;74.10547;95622.5;;;;
2020/05/21 00:37:27;;;;;;;8.75;7.799999;;;;;;;10.4;74.10547;95622.5;;;;
2020/05/21 00:38:28;;;;;;;8.75;7.799999;;;;;;;10.4;74.10547;95622.5;;;;
2020/05/21 00:39:28;;;;;;;8.75;7.799999;;;;;;;10.4;74.10547;95622.5;;;;
2020/05/21 00:40:28;;;;;;;9.449999;7.35;;;;;;;10.69;74.10156;95614.12;;;;
2020/05/21 00:41:29;;;;;;;9.449999;7.35;;;;;;;10.69;74.10156;95614.12;;;;
2020/05/21 00:42:29;;;;;;;9.449999;7.35;;;;;;;10.69;74.10156;95614.12;;;;
2020/05/21 00:43:30;;;;;;;9.449999;7.35;;;;;;;10.69;74.10156;95614.12;;;;
2020/05/21 00:44:30;;;;;;;9.449999;7.35;;;;;;;10.69;74.10156;95614.12;;;;
2020/05/21 00:45:31;;;;;;;9.449999;7.35;;;;;;;10.69;74.10156;95614.12;;;;
2020/05/21 00:46:31;;;;;;;9.449999;7.35;;;;;;;10.69;74.10156;95614.12;;;;
2020/05/21 00:47:31;;;;;;;9.449999;7.35;;;;;;;10.69;74.10156;95614.12;;;;
2020/05/21 00:48:32;;;;;;;9.449999;7.35;;;;;;;10.69;74.10156;95614.12;;;;
2020/05/21 00:49:32;;;;;;;9.449999;7.35;;;;;;;10.69;74.10156;95614.12;;;;
2020/05/21 00:50:33;;;;;;;7.4;6.7;;;;;;;10.96;74.20117;95598.27;;;;
2020/05/21 00:51:33;;;;;;;7.4;6.7;;;;;;;10.96;74.20117;95598.27;;;;
2020/05/21 00:52:34;;;;;;;7.4;6.7;;;;;;;10.96;74.20117;95598.27;;;;
2020/05/21 00:53:35;;;;;;;7.4;6.7;;;;;;;10.96;74.20117;95598.27;;;;
2020/05/21 00:54:35;;;;;;;7.4;6.7;;;;;;;10.96;74.20117;95598.27;;;;
2020/05/21 00:55:35;;;;;;;7.4;6.7;;;;;;;10.96;74.20117;95598.27;;;;
2020/05/21 00:56:36;;;;;;;7.4;6.7;;;;;;;10.96;74.20117;95598.27;;;;
2020/05/21 00:57:36;;;;;;;7.4;6.7;;;;;;;10.96;74.20117;95598.27;;;;
2020/05/21 00:58:37;;;;;;;7.4;6.7;;;;;;;10.96;74.20117;95598.27;;;;
2020/05/21 00:59:37;;;;;;;7.4;6.7;;;;;;;10.96;74.20117;95598.27;;;;
2020/05/21 01:00:38;;;;;;;7.4;6.7;;;;;;;10.96;74.20117;95598.27;;;;
2020/05/21 01:06:56;;;;;;;7.600001;6.8;;;;;;;11.02;74.28613;95598.71;;;;
2020/05/21 01:08:08;;;;;;;7.600001;6.8;;;;;;;11.02;74.28613;95598.71;;;;
2020/05/21 01:09:17;;;;;;;7.600001;6.8;;;;;;;11.02;74.28613;95598.71;;;;
2020/05/21 01:10:34;;;;;;;7.600001;6.8;;;;;;;11.02;74.28613;95598.71;;;;
2020/05/21 01:11:44;;;;;;;8;7.2;;;;;;;10.89;74.59668;95586.22;;;;
2020/05/21 01:18:05;;;;;;;8;7.2;;;;;;;10.89;74.59668;95586.22;;;;
2020/05/21 01:19:37;;;;;;;8;7.2;;;;;;;10.89;74.59668;95586.22;;;;
2020/05/21 01:20:50;;;;;;;8;7.2;;;;;;;10.89;74.59668;95586.22;;;;
2020/05/21 01:22:07;;;;;;;8;7.2;;;;;;;10.89;74.59668;95586.22;;;;
2020/05/21 01:23:27;;;;;;;7.7;7.05;;;;;;;10.71;75.18555;95587.72;;;;
2020/05/21 01:24:50;;;;;;;7.7;7.05;;;;;;;10.71;75.18555;95587.72;;;;
2020/05/21 01:26:39;;;;;;;7.7;7.05;;;;;;;10.71;75.18555;95587.72;;;;
2020/05/21 01:28:04;;;;;;;7.7;7.05;;;;;;;10.71;75.18555;95587.72;;;;
2020/05/21 01:29:08;;;;;;;7.7;7.05;;;;;;;10.71;75.18555;95587.72;;;;
2020/05/21 01:30:13;;;;;;;7.7;7.05;;;;;;;10.71;75.18555;95587.72;;;;
2020/05/21 01:31:20;;;;;;;7.7;7.05;;;;;;;10.71;75.18555;95587.72;;;;
2020/05/21 01:32:35;;;;;;;7.7;7.05;;;;;;;10.71;75.18555;95587.72;;;;
2020/05/21 01:34:01;;;;;;;7.249999;6.550001;;;;;;;10.64;75.625;95583.76;;;;
2020/05/21 01:35:09;;;;;;;7.249999;6.550001;;;;;;;10.64;75.625;95583.76;;;;
2020/05/21 01:36:16;;;;;;;7.249999;6.550001;;;;;;;10.64;75.625;95583.76;;;;
2020/05/21 01:37:20;;;;;;;7.249999;6.550001;;;;;;;10.64;75.625;95583.76;;;;
2020/05/21 01:38:21;;;;;;;7.249999;6.550001;;;;;;;10.64;75.625;95583.76;;;;
2020/05/21 01:39:22;;;;;;;7.249999;6.550001;;;;;;;10.64;75.625;95583.76;;;;
2020/05/21 01:40:25;;;;;;;7.249999;6.550001;;;;;;;10.64;75.625;95583.76;;;;
2020/05/21 01:41:33;;;;;;;7.249999;6.550001;;;;;;;10.64;75.625;95583.76;;;;
2020/05/21 01:42:33;;;;;;;7.249999;6.550001;;;;;;;10.64;75.625;95583.76;;;;
2020/05/21 01:43:34;;;;;;;7.7;7.099999;;;;;;;10.35;76.05371;95580.94;;;;
2020/05/21 01:44:34;;;;;;;7.7;7.099999;;;;;;;10.35;76.05371;95580.94;;;;
2020/05/21 01:45:35;;;;;;;7.7;7.099999;;;;;;;10.35;76.05371;95580.94;;;;
2020/05/21 01:46:36;;;;;;;7.7;7.099999;;;;;;;10.35;76.05371;95580.94;;;;
2020/05/21 01:47:37;;;;;;;7.7;7.099999;;;;;;;10.35;76.05371;95580.94;;;;
2020/05/21 01:48:37;;;;;;;7.7;7.099999;;;;;;;10.35;76.05371;95580.94;;;;
2020/05/21 01:49:39;;;;;;;7.7;7.099999;;;;;;;10.35;76.05371;95580.94;;;;
2020/05/21 01:50:40;;;;;;;7.7;7.099999;;;;;;;10.35;76.05371;95580.94;;;;
2020/05/21 01:51:40;;;;;;;7.7;7.099999;;;;;;;10.35;76.05371;95580.94;;;;
2020/05/21 01:52:41;;;;;;;7.7;7.099999;;;;;;;10.35;76.05371;95580.94;;;;
2020/05/21 01:53:41;;;;;;;7.7;7.099999;;;;;;;10.35;76.05371;95580.94;;;;
2020/05/21 01:54:42;;;;;;;8.15;7.450001;;;;;;;10.12;76.66602;95576.35;;;;
2020/05/21 01:55:42;;;;;;;8.15;7.450001;;;;;;;10.12;76.66602;95576.35;;;;
2020/05/21 01:56:43;;;;;;;8.15;7.450001;;;;;;;10.12;76.66602;95576.35;;;;
2020/05/21 01:57:43;;;;;;;8.15;7.450001;;;;;;;10.12;76.66602;95576.35;;;;
2020/05/21 01:58:43;;;;;;;8.15;7.450001;;;;;;;10.12;76.66602;95576.35;;;;
2020/05/21 01:59:44;;;;;;;8.15;7.450001;;;;;;;10.12;76.66602;95576.35;;;;
2020/05/21 02:00:46;;;;;;;8.15;7.450001;;;;;;;10.12;76.66602;95576.35;;;;
2020/05/21 02:01:55;;;;;;;8.15;7.450001;;;;;;;10.12;76.66602;95576.35;;;;
2020/05/21 02:03:00;;;;;;;8.15;7.450001;;;;;;;10.12;76.66602;95576.35;;;;
2020/05/21 02:04:01;;;;;;;8.15;7.450001;;;;;;;10.12;76.66602;95576.35;;;;
2020/05/21 02:05:02;;;;;;;8.549999;7.75;;;;;;;9.89;77.16016;95572.97;;;;
2020/05/21 02:06:09;;;;;;;8.549999;7.75;;;;;;;9.89;77.16016;95572.97;;;;
2020/05/21 02:07:18;;;;;;;8.549999;7.75;;;;;;;9.89;77.16016;95572.97;;;;
2020/05/21 02:08:25;;;;;;;8.549999;7.75;;;;;;;9.89;77.16016;95572.97;;;;
2020/05/21 02:09:26;;;;;;;8.549999;7.75;;;;;;;9.89;77.16016;95572.97;;;;
2020/05/21 02:10:27;;;;;;;8.549999;7.75;;;;;;;9.89;77.16016;95572.97;;;;
2020/05/21 02:11:28;;;;;;;8.549999;7.75;;;;;;;9.89;77.16016;95572.97;;;;
2020/05/21 02:12:39;;;;;;;8.549999;7.75;;;;;;;9.89;77.16016;95572.97;;;;
2020/05/21 02:24:33;;;;;;;8.3;7.6;;;;;;;9.7;77.75684;95567.66;;;;
2020/05/21 02:26:03;;;;;;;8.3;7.6;;;;;;;9.7;77.75684;95567.66;;;;
2020/05/21 02:27:46;;;;;;;8.65;7.849999;;;;;;;9.49;78.20801;95564.56;;;;
2020/05/21 02:55:11;;;;;;;9;8.199999;;;;;;;9.62;79.20215;95570.67;;;;
2020/05/21 02:56:30;;;;;;;9;8.199999;;;;;;;9.62;79.20215;95570.67;;;;
2020/05/21 03:11:15;;;;;;;8.500001;7.7;;;;;;;10.24;79.33691;95574.95;;;;
2020/05/21 03:23:00;;;;;;;8.399999;7.599999;;;;;;;10.56;79.29688;95570.19;;;;
2020/05/21 03:29:42;;;;;;;8.399999;7.599999;;;;;;;10.56;79.29688;95570.19;;;;
2020/05/21 03:36:09;;;;;;;8.249999;7.5;;;;;;;10.74;79.38477;95585.94;;;;
2020/05/21 03:52:54;;;;;;;7.65;6.95;;;;;;;11.15;79.7041;95568.78;;;;
2020/05/21 03:53:55;;;;;;;7.65;6.95;;;;;;;11.15;79.7041;95568.78;;;;
2020/05/21 03:54:56;;;;;;;7.65;6.95;;;;;;;11.15;79.7041;95568.78;;;;
2020/05/21 03:55:57;;;;;;;7.65;6.95;;;;;;;11.15;79.7041;95568.78;;;;
2020/05/21 03:56:57;;;;;;;7.65;6.95;;;;;;;11.15;79.7041;95568.78;;;;
2020/05/21 03:57:58;;;;;;;7.65;6.95;;;;;;;11.15;79.7041;95568.78;;;;
2020/05/21 03:58:58;;;;;;;7.65;6.95;;;;;;;11.15;79.7041;95568.78;;;;
2020/05/21 04:00:02;;;;;;;7.65;6.95;;;;;;;11.15;79.7041;95568.78;;;;
2020/05/21 04:01:09;;;;;;;7.65;6.95;;;;;;;11.15;79.7041;95568.78;;;;
2020/05/21 04:02:17;;;;;;;7.3;6.5;;;;;;;11.42;79.66797;95569.17;;;;
2020/05/21 04:04:02;;;;;;;7.3;6.5;;;;;;;11.42;79.66797;95569.17;;;;
2020/05/21 04:06:20;;;;;;;7.3;6.5;;;;;;;11.42;79.66797;95569.17;;;;
2020/05/21 04:12:36;;;;;;;7.2;6.6;;;;;;;11.64;79.31348;95588.2;;;;
2020/05/21 04:13:37;;;;;;;7.2;6.6;;;;;;;11.64;79.31348;95588.2;;;;
2020/05/21 04:14:37;;;;;;;7.2;6.6;;;;;;;11.64;79.31348;95588.2;;;;
2020/05/21 04:15:37;;;;;;;7.2;6.6;;;;;;;11.64;79.31348;95588.2;;;;
2020/05/21 04:21:59;;;;;;;7.2;6.6;;;;;;;11.64;79.31348;95588.2;;;;
2020/05/21 04:23:01;;;;;;;7.75;7.100001;;;;;;;11.89;79.40039;95595.2;;;;
2020/05/21 04:24:03;;;;;;;7.75;7.100001;;;;;;;11.89;79.40039;95595.2;;;;
2020/05/21 04:25:04;;;;;;;7.75;7.100001;;;;;;;11.89;79.40039;95595.2;;;;
2020/05/21 04:26:05;;;;;;;7.75;7.100001;;;;;;;11.89;79.40039;95595.2;;;;
2020/05/21 04:27:06;;;;;;;7.75;7.100001;;;;;;;11.89;79.40039;95595.2;;;;
2020/05/21 04:28:06;;;;;;;7.75;7.100001;;;;;;;11.89;79.40039;95595.2;;;;
2020/05/21 04:29:31;;;;;;;7.75;7.100001;;;;;;;11.89;79.40039;95595.2;;;;
2020/05/21 04:30:38;;;;;;;7.75;7.100001;;;;;;;11.89;79.40039;95595.2;;;;
2020/05/21 04:31:46;;;;;;;7.75;7.100001;;;;;;;11.89;79.40039;95595.2;;;;
2020/05/21 04:32:53;;;;;;;7.75;7.100001;;;;;;;11.89;79.40039;95595.2;;;;
2020/05/21 04:34:05;;;;;;;7.349999;6.75;;;;;;;12.02;79.37988;95610.75;;;;
2020/05/21 04:35:11;;;;;;;7.349999;6.75;;;;;;;12.02;79.37988;95610.75;;;;
2020/05/21 04:36:11;;;;;;;7.349999;6.75;;;;;;;12.02;79.37988;95610.75;;;;
2020/05/21 04:37:12;;;;;;;7.349999;6.75;;;;;;;12.02;79.37988;95610.75;;;;
2020/05/21 04:38:13;;;;;;;7.349999;6.75;;;;;;;12.02;79.37988;95610.75;;;;
2020/05/21 04:39:14;;;;;;;7.349999;6.75;;;;;;;12.02;79.37988;95610.75;;;;
2020/05/21 04:40:14;;;;;;;7.349999;6.75;;;;;;;12.02;79.37988;95610.75;;;;
2020/05/21 04:41:15;;;;;;;7.349999;6.75;;;;;;;12.02;79.37988;95610.75;;;;
2020/05/21 04:42:15;;;;;;;7.349999;6.75;;;;;;;12.02;79.37988;95610.75;;;;
2020/05/21 04:43:16;;;;;;;7.349999;6.75;;;;;;;12.02;79.37988;95610.75;;;;
2020/05/21 04:44:16;;;;;;;7.8;7.2;;;;;;;12.29;79.21484;95619.08;;;;
2020/05/21 04:45:17;;;;;;;7.8;7.2;;;;;;;12.29;79.21484;95619.08;;;;
2020/05/21 04:46:17;;;;;;;7.8;7.2;;;;;;;12.29;79.21484;95619.08;;;;
2020/05/21 04:47:17;;;;;;;7.8;7.2;;;;;;;12.29;79.21484;95619.08;;;;
2020/05/21 04:48:18;;;;;;;7.8;7.2;;;;;;;12.29;79.21484;95619.08;;;;
2020/05/21 04:49:19;;;;;;;7.8;7.2;;;;;;;12.29;79.21484;95619.08;;;;
2020/05/21 04:50:19;;;;;;;7.8;7.2;;;;;;;12.29;79.21484;95619.08;;;;
2020/05/21 04:51:19;;;;;;;7.8;7.2;;;;;;;12.29;79.21484;95619.08;;;;
2020/05/21 04:52:20;;;;;;;7.8;7.2;;;;;;;12.29;79.21484;95619.08;;;;
2020/05/21 04:53:20;;;;;;;7.8;7.2;;;;;;;12.29;79.21484;95619.08;;;;
2020/05/21 04:54:21;;;;;;;7.8;7.2;;;;;;;12.29;79.21484;95619.08;;;;
2020/05/21 04:55:24;;;;;;;8.200001;7.500001;;;;;;;12.64;78.61133;95616.3;;;;
2020/05/21 04:56:24;;;;;;;8.200001;7.500001;;;;;;;12.64;78.61133;95616.3;;;;
2020/05/21 04:57:25;;;;;;;8.200001;7.500001;;;;;;;12.64;78.61133;95616.3;;;;
2020/05/21 04:58:25;;;;;;;8.200001;7.500001;;;;;;;12.64;78.61133;95616.3;;;;
2020/05/21 04:59:26;;;;;;;8.200001;7.500001;;;;;;;12.64;78.61133;95616.3;;;;
2020/05/21 05:00:26;;;;;;;8.200001;7.500001;;;;;;;12.64;78.61133;95616.3;;;;
2020/05/21 05:01:26;;;;;;;8.200001;7.500001;;;;;;;12.64;78.61133;95616.3;;;;
2020/05/21 05:03:35;;;;;;;8.200001;7.500001;;;;;;;12.64;78.61133;95616.3;;;;
2020/05/21 05:05:33;;;;;;;8.200001;7.500001;;;;;;;12.64;78.61133;95616.3;;;;
2020/05/21 05:06:56;;;;;;;8.200001;7.5;;;;;;;13.12;78.00098;95625.27;;;;
2020/05/21 05:08:04;;;;;;;8.200001;7.5;;;;;;;13.12;78.00098;95625.27;;;;
2020/05/21 05:09:26;;;;;;;8.200001;7.5;;;;;;;13.12;78.00098;95625.27;;;;
2020/05/21 05:10:40;;;;;;;8.200001;7.5;;;;;;;13.12;78.00098;95625.27;;;;
2020/05/21 05:15:17;;;;;;;8.200001;7.5;;;;;;;13.12;78.00098;95625.27;;;;
2020/05/21 05:16:39;;;;;;;8.25;7.45;;;;;;;13.6;77.5459;95632.87;;;;
2020/05/21 05:43:53;;;;;;;8.6;7.849999;;;;;;;14.16;77.3418;95648.16;;;;
2020/05/21 05:45:01;;;;;;;8.6;7.849999;;;;;;;14.16;77.3418;95648.16;;;;
2020/05/21 06:01:55;;;;;;;8.700001;8.000002;;;;;;;14.44;77.02539;95661.24;;;;
2020/05/21 06:03:46;;;;;;;8.700001;8.000002;;;;;;;14.44;77.02539;95661.24;;;;
2020/05/21 06:08:41;;;;;;;8.700001;8.000002;;;;;;;14.44;77.02539;95661.24;;;;
2020/05/21 06:10:01;;;;;;;9.1;8.3;;;;;;;14.63;76.91797;95668.84;;;;
2020/05/21 06:11:11;;;;;;;9.1;8.3;;;;;;;14.63;76.91797;95668.84;;;;
2020/05/21 06:12:23;;;;;;;9.1;8.3;;;;;;;14.63;76.91797;95668.84;;;;
2020/05/21 06:18:50;;;;;;;9.1;8.3;;;;;;;14.63;76.91797;95668.84;;;;
2020/05/21 06:20:03;;;;;;;8.95;8.25;;;;;;;14.96;76.65137;95677.01;;;;
2020/05/21 06:21:15;;;;;;;8.95;8.25;;;;;;;14.96;76.65137;95677.01;;;;
2020/05/21 06:22:19;;;;;;;8.95;8.25;;;;;;;14.96;76.65137;95677.01;;;;
2020/05/21 06:23:21;;;;;;;8.95;8.25;;;;;;;14.96;76.65137;95677.01;;;;
2020/05/21 06:24:21;;;;;;;8.95;8.25;;;;;;;14.96;76.65137;95677.01;;;;
2020/05/21 06:25:21;;;;;;;8.95;8.25;;;;;;;14.96;76.65137;95677.01;;;;
2020/05/21 06:26:22;;;;;;;8.95;8.25;;;;;;;14.96;76.65137;95677.01;;;;
2020/05/21 06:27:22;;;;;;;8.95;8.25;;;;;;;14.96;76.65137;95677.01;;;;
2020/05/21 06:28:23;;;;;;;8.95;8.25;;;;;;;14.96;76.65137;95677.01;;;;
2020/05/21 06:29:23;;;;;;;8.95;8.25;;;;;;;14.96;76.65137;95677.01;;;;
2020/05/21 06:30:24;;;;;;;10.3;9.400002;;;;;;;15.93;75.01172;95678.63;;;;
2020/05/21 06:31:24;;;;;;;10.3;9.400002;;;;;;;15.93;75.01172;95678.63;;;;
2020/05/21 06:32:24;;;;;;;10.3;9.400002;;;;;;;15.93;75.01172;95678.63;;;;
2020/05/21 06:33:25;;;;;;;10.3;9.400002;;;;;;;15.93;75.01172;95678.63;;;;
2020/05/21 06:34:25;;;;;;;10.3;9.400002;;;;;;;15.93;75.01172;95678.63;;;;
2020/05/21 06:35:26;;;;;;;10.3;9.400002;;;;;;;15.93;75.01172;95678.63;;;;
2020/05/21 06:36:26;;;;;;;10.3;9.400002;;;;;;;15.93;75.01172;95678.63;;;;
2020/05/21 06:37:27;;;;;;;10.3;9.400002;;;;;;;15.93;75.01172;95678.63;;;;
2020/05/21 06:38:27;;;;;;;10.3;9.400002;;;;;;;15.93;75.01172;95678.63;;;;
2020/05/21 06:39:27;;;;;;;10.3;9.400002;;;;;;;15.93;75.01172;95678.63;;;;
2020/05/21 06:40:28;;;;;;;10.3;9.400002;;;;;;;15.93;75.01172;95678.63;;;;
2020/05/21 06:41:28;;;;;;;10.1;9.200001;;;;;;;16.81;73.3584;95687.98;;;;
2020/05/21 06:42:29;;;;;;;10.1;9.200001;;;;;;;16.81;73.3584;95687.98;;;;
2020/05/21 06:43:29;;;;;;;10.1;9.200001;;;;;;;16.81;73.3584;95687.98;;;;
2020/05/21 06:44:30;;;;;;;10.1;9.200001;;;;;;;16.81;73.3584;95687.98;;;;
2020/05/21 06:45:30;;;;;;;10.1;9.200001;;;;;;;16.81;73.3584;95687.98;;;;
2020/05/21 06:46:30;;;;;;;10.1;9.200001;;;;;;;16.81;73.3584;95687.98;;;;
2020/05/21 06:47:31;;;;;;;10.1;9.200001;;;;;;;16.81;73.3584;95687.98;;;;
2020/05/21 06:48:31;;;;;;;10.1;9.200001;;;;;;;16.81;73.3584;95687.98;;;;
2020/05/21 06:49:32;;;;;;;10.1;9.200001;;;;;;;16.81;73.3584;95687.98;;;;
2020/05/21 06:50:32;;;;;;;10.1;9.200001;;;;;;;16.81;73.3584;95687.98;;;;
2020/05/21 06:51:33;;;;;;;10.9;9.85;;;;;;;17.44;72.13574;95690.01;;;;
2020/05/21 06:52:33;;;;;;;10.9;9.85;;;;;;;17.44;72.13574;95690.01;;;;
2020/05/21 06:53:34;;;;;;;10.9;9.85;;;;;;;17.44;72.13574;95690.01;;;;
2020/05/21 06:54:34;;;;;;;10.9;9.85;;;;;;;17.44;72.13574;95690.01;;;;
2020/05/21 06:55:34;;;;;;;10.9;9.85;;;;;;;17.44;72.13574;95690.01;;;;
2020/05/21 06:56:35;;;;;;;10.9;9.85;;;;;;;17.44;72.13574;95690.01;;;;
2020/05/21 06:57:35;;;;;;;10.9;9.85;;;;;;;17.44;72.13574;95690.01;;;;
2020/05/21 06:58:36;;;;;;;10.9;9.85;;;;;;;17.44;72.13574;95690.01;;;;
2020/05/21 06:59:39;;;;;;;10.9;9.85;;;;;;;17.44;72.13574;95690.01;;;;
2020/05/21 07:00:40;;;;;;;10.9;9.85;;;;;;;17.44;72.13574;95690.01;;;;
2020/05/21 07:01:40;;;;;;;10.9;9.85;;;;;;;17.44;72.13574;95690.01;;;;
2020/05/21 07:02:41;;;;;;;9.8;8.9;;;;;;;19.01;69.67383;95704.33;;;;
2020/05/21 07:03:46;;;;;;;9.8;8.9;;;;;;;19.01;69.67383;95704.33;;;;
2020/05/21 07:04:47;;;;;;;9.8;8.9;;;;;;;19.01;69.67383;95704.33;;;;
2020/05/21 07:05:47;;;;;;;9.8;8.9;;;;;;;19.01;69.67383;95704.33;;;;
2020/05/21 07:06:47;;;;;;;9.8;8.9;;;;;;;19.01;69.67383;95704.33;;;;
2020/05/21 07:07:48;;;;;;;9.8;8.9;;;;;;;19.01;69.67383;95704.33;;;;
2020/05/21 07:08:48;;;;;;;9.8;8.9;;;;;;;19.01;69.67383;95704.33;;;;
2020/05/21 07:09:49;;;;;;;9.8;8.9;;;;;;;19.01;69.67383;95704.33;;;;
2020/05/21 07:10:49;;;;;;;9.8;8.9;;;;;;;19.01;69.67383;95704.33;;;;
2020/05/21 07:11:50;;;;;;;9.8;8.9;;;;;;;19.01;69.67383;95704.33;;;;
2020/05/21 07:12:50;;;;;;;9.85;9.050001;;;;;;;18.93;69.50684;95705.83;;;;
2020/05/21 07:13:51;;;;;;;9.85;9.050001;;;;;;;18.93;69.50684;95705.83;;;;
2020/05/21 07:14:52;;;;;;;9.85;9.050001;;;;;;;18.93;69.50684;95705.83;;;;
2020/05/21 07:16:03;;;;;;;9.85;9.050001;;;;;;;18.93;69.50684;95705.83;;;;
2020/05/21 07:17:40;;;;;;;9.85;9.050001;;;;;;;18.93;69.50684;95705.83;;;;
2020/05/21 07:19:17;;;;;;;9.85;9.050001;;;;;;;18.93;69.50684;95705.83;;;;
2020/05/21 07:20:58;;;;;;;9.85;9.050001;;;;;;;18.93;69.50684;95705.83;;;;
2020/05/21 07:22:00;;;;;;;9.85;9.050001;;;;;;;18.93;69.50684;95705.83;;;;
2020/05/21 07:28:11;;;;;;;9.500001;8.700001;;;;;;;19.25;68.43066;95720.92;;;;
2020/05/21 07:29:12;;;;;;;9.500001;8.700001;;;;;;;19.25;68.43066;95720.92;;;;
2020/05/21 07:30:12;;;;;;;9.500001;8.700001;;;;;;;19.25;68.43066;95720.92;;;;
2020/05/21 07:31:13;;;;;;;9.500001;8.700001;;;;;;;19.25;68.43066;95720.92;;;;
2020/05/21 07:32:14;;;;;;;9.500001;8.700001;;;;;;;19.25;68.43066;95720.92;;;;
2020/05/21 07:33:14;;;;;;;9.500001;8.700001;;;;;;;19.25;68.43066;95720.92;;;;
2020/05/21 07:34:15;;;;;;;10.1;9.1;;;;;;;21.77;64.17383;95711.45;;;;
2020/05/21 07:35:15;;;;;;;10.1;9.1;;;;;;;21.77;64.17383;95711.45;;;;
2020/05/21 07:36:15;;;;;;;10.1;9.1;;;;;;;21.77;64.17383;95711.45;;;;
2020/05/21 07:37:16;;;;;;;10.1;9.1;;;;;;;21.77;64.17383;95711.45;;;;
2020/05/21 07:38:17;;;;;;;10.1;9.1;;;;;;;21.77;64.17383;95711.45;;;;
2020/05/21 07:39:17;;;;;;;10.1;9.1;;;;;;;21.77;64.17383;95711.45;;;;
2020/05/21 07:40:18;;;;;;;10.1;9.1;;;;;;;21.77;64.17383;95711.45;;;;
2020/05/21 07:41:31;;;;;;;10.1;9.1;;;;;;;21.77;64.17383;95711.45;;;;
2020/05/21 07:42:44;;;;;;;10.1;9.1;;;;;;;21.77;64.17383;95711.45;;;;
2020/05/21 07:43:45;;;;;;;10.1;9.1;;;;;;;21.77;64.17383;95711.45;;;;
2020/05/21 07:44:45;;;;;;;9.900001;9.100001;;;;;;;23.33;60.68262;95719.98;;;;
2020/05/21 07:47:46;;;;;;;9.900001;9.100001;;;;;;;23.33;60.68262;95719.98;;;;
2020/05/21 07:54:24;;;;;;;9.900001;9.100001;;;;;;;23.33;60.68262;95719.98;;;;
2020/05/21 07:55:25;;;;;;;9.35;8.550001;;;;;;;24.9;57.53027;95717.18;;;;
2020/05/21 07:56:25;;;;;;;9.35;8.550001;;;;;;;24.9;57.53027;95717.18;;;;
2020/05/21 07:57:30;;;;;;;9.35;8.550001;;;;;;;24.9;57.53027;95717.18;;;;
2020/05/21 07:58:40;;;;;;;9.35;8.550001;;;;;;;24.9;57.53027;95717.18;;;;
2020/05/21 08:01:02;;;;;;;9.35;8.550001;;;;;;;24.9;57.53027;95717.18;;;;
2020/05/21 08:04:43;;;;;;;9.35;8.550001;;;;;;;24.9;57.53027;95717.18;;;;
2020/05/21 08:07:26;;;;;;;10.6;9.75;;;;;;;25.25;55.91895;95722.58;;;;
2020/05/21 08:09:37;;;;;;;10.6;9.75;;;;;;;25.25;55.91895;95722.58;;;;
2020/05/21 08:17:23;;;;;;;10.6;9.75;;;;;;;25.25;55.91895;95722.58;;;;
2020/05/21 08:18:49;;;;;;;9.000001;8.200001;;;;;;;25.47;55.10059;95719.39;;;;
2020/05/21 08:19:55;;;;;;;9.000001;8.200001;;;;;;;25.47;55.10059;95719.39;;;;
2020/05/21 08:20:56;;;;;;;9.000001;8.200001;;;;;;;25.47;55.10059;95719.39;;;;
2020/05/21 08:21:56;;;;;;;9.000001;8.200001;;;;;;;25.47;55.10059;95719.39;;;;
2020/05/21 08:22:57;;;;;;;9.000001;8.200001;;;;;;;25.47;55.10059;95719.39;;;;
2020/05/21 08:23:58;;;;;;;9.000001;8.200001;;;;;;;25.47;55.10059;95719.39;;;;
2020/05/21 08:24:58;;;;;;;9.000001;8.200001;;;;;;;25.47;55.10059;95719.39;;;;
2020/05/21 08:25:59;;;;;;;9.000001;8.200001;;;;;;;25.47;55.10059;95719.39;;;;
2020/05/21 08:26:59;;;;;;;8.249999;7.55;;;;;;;26.08;53.65918;95728.56;;;;
2020/05/21 08:28:00;;;;;;;8.249999;7.55;;;;;;;26.08;53.65918;95728.56;;;;
2020/05/21 08:29:00;;;;;;;8.249999;7.55;;;;;;;26.08;53.65918;95728.56;;;;
2020/05/21 08:30:00;;;;;;;8.249999;7.55;;;;;;;26.08;53.65918;95728.56;;;;
2020/05/21 08:31:01;;;;;;;8.249999;7.55;;;;;;;26.08;53.65918;95728.56;;;;
2020/05/21 08:32:01;;;;;;;8.249999;7.55;;;;;;;26.08;53.65918;95728.56;;;;
2020/05/21 08:33:02;;;;;;;8.249999;7.55;;;;;;;26.08;53.65918;95728.56;;;;
2020/05/21 08:34:02;;;;;;;8.249999;7.55;;;;;;;26.08;53.65918;95728.56;;;;
2020/05/21 08:35:03;;;;;;;8.249999;7.55;;;;;;;26.08;53.65918;95728.56;;;;
2020/05/21 08:36:03;;;;;;;8.249999;7.55;;;;;;;26.08;53.65918;95728.56;;;;
2020/05/21 08:37:03;;;;;;;8.249999;7.55;;;;;;;26.08;53.65918;95728.56;;;;
2020/05/21 08:38:04;;;;;;;8.25;7.5;;;;;;;27.29;50.81543;95735.72;;;;
2020/05/21 08:39:04;;;;;;;8.25;7.5;;;;;;;27.29;50.81543;95735.72;;;;
2020/05/21 08:40:05;;;;;;;9.200001;8.4;;;;;;;27.63;47.97363;95733.26;;;;
2020/05/21 08:41:05;;;;;;;9.200001;8.4;;;;;;;27.63;47.97363;95733.26;;;;
2020/05/21 08:42:07;;;;;;;9.200001;8.4;;;;;;;27.63;47.97363;95733.26;;;;
2020/05/21 08:43:07;;;;;;;8.199999;7.5;;;;;;;27.93;45.24414;95729.55;;;;
2020/05/21 08:44:08;;;;;;;8.199999;7.5;;;;;;;27.93;45.24414;95729.55;;;;
2020/05/21 08:45:08;;;;;;;8.199999;7.5;;;;;;;27.93;45.24414;95729.55;;;;
2020/05/21 08:46:09;;;;;;;8;7.4;;;;;;;28.6;43.47949;95732.65;;;;
2020/05/21 08:47:10;;;;;;;8;7.4;;;;;;;28.6;43.47949;95732.65;;;;
2020/05/21 08:48:11;;;;;;;7.8;7.100001;;;;;;;29.36;41.82715;95727.56;;;;
2020/05/21 08:49:12;;;;;;;7.8;7.100001;;;;;;;29.36;41.82715;95727.56;;;;
2020/05/21 08:50:13;;;;;;;7.8;7.100001;;;;;;;29.36;41.82715;95727.56;;;;
2020/05/21 08:51:13;;;;;;;7.8;7.100001;;;;;;;29.36;41.82715;95727.56;;;;
2020/05/21 08:52:13;;;;;;;7.8;7.100001;;;;;;;29.36;41.82715;95727.56;;;;
2020/05/21 08:53:14;;;;;;;7.8;7.100001;;;;;;;29.36;41.82715;95727.56;;;;
2020/05/21 08:54:14;;;;;;;7.8;7.100001;;;;;;;29.36;41.82715;95727.56;;;;
2020/05/21 08:55:15;;;;;;;7.8;7.100001;;;;;;;29.36;41.82715;95727.56;;;;
2020/05/21 08:56:15;;;;;;;7.8;7.100001;;;;;;;29.36;41.82715;95727.56;;;;
2020/05/21 08:57:16;;;;;;;7.8;7.100001;;;;;;;29.36;41.82715;95727.56;;;;
2020/05/21 08:58:16;;;;;;;7.8;7.100001;;;;;;;29.36;41.82715;95727.56;;;;
2020/05/21 08:59:16;;;;;;;7.800001;7.050001;;;;;;;28.07;45;95732.89;;;;
2020/05/21 09:00:17;;;;;;;7.800001;7.050001;;;;;;;28.07;45;95732.89;;;;
2020/05/21 09:01:18;;;;;;;7.800001;7.050001;;;;;;;28.07;45;95732.89;;;;
2020/05/21 09:02:18;;;;;;;7.800001;7.050001;;;;;;;28.07;45;95732.89;;;;
2020/05/21 09:03:18;;;;;;;7.800001;7.050001;;;;;;;28.07;45;95732.89;;;;
2020/05/21 09:04:19;;;;;;;7.800001;7.050001;;;;;;;28.07;45;95732.89;;;;
2020/05/21 09:05:19;;;;;;;7.800001;7.050001;;;;;;;28.07;45;95732.89;;;;
2020/05/21 09:06:20;;;;;;;7.800001;7.050001;;;;;;;28.07;45;95732.89;;;;
2020/05/21 09:07:20;;;;;;;7.800001;7.050001;;;;;;;28.07;45;95732.89;;;;
2020/05/21 09:08:21;;;;;;;7.800001;7.050001;;;;;;;28.07;45;95732.89;;;;
2020/05/21 09:09:21;;;;;;;5.8;5.349999;;;;;;;28.76;43.53906;95734.49;;;;
2020/05/21 09:10:22;;;;;;;5.8;5.349999;;;;;;;28.76;43.53906;95734.49;;;;
2020/05/21 09:11:22;;;;;;;5.8;5.349999;;;;;;;28.76;43.53906;95734.49;;;;
2020/05/21 09:12:22;;;;;;;5.599999;5.099999;;;;;;;29.74;41.03906;95737.84;;;;
2020/05/21 09:13:23;;;;;;;5.599999;5.099999;;;;;;;29.74;41.03906;95737.84;;;;
2020/05/21 09:14:23;;;;;;;5.599999;5.099999;;;;;;;29.74;41.03906;95737.84;;;;
2020/05/21 09:15:24;;;;;;;6.250001;5.75;;;;;;;29.67;39.55371;95739.37;;;;
2020/05/21 09:16:24;;;;;;;6.250001;5.75;;;;;;;29.67;39.55371;95739.37;;;;
2020/05/21 09:17:25;;;;;;;6.250001;5.75;;;;;;;29.67;39.55371;95739.37;;;;
2020/05/21 09:18:25;;;;;;;6.250001;5.75;;;;;;;29.67;39.55371;95739.37;;;;